PILOTS ONLINE: 366    ATC ONLINE: 56

KFOE

Forbes Field

Location

IATA FOE
City Topeka
Country  United States
Latitude 38° 57' 3" N
Longitude 95° 39' 48" W
Elevation 1078 ft
Type Medium Airport

Map

Weather

METAR
2014/08/30 09:53
KFOE 300953Z AUTO 00000KT 10SM CLR 19/18 A2989 RMK AO2 SLP111 T01890178
TAF
2014/08/30 06:21
TAF KFOE 300520Z 3006/3106 VRB03KT P6SM SKC 
     FM302100 15007KT P6SM SKC

Runways

03/21 7000 ft / 150 ft
13/31 12802 ft / 200 ft

Outbound flights

Callsign Flying to Pilot ATD/STD ETA Aircraft

Inbound flights

Callsign Flying from Pilot ATD ETA Aircraft